sensor_id;sensor_type;location;lat;lon;timestamp;temperature;humidity
17795;DHT22;9021;50.882;4.326;2023-07-31T00:00:29;18.30;99.90
17795;DHT22;9021;50.882;4.326;2023-07-31T00:02:54;18.20;99.90
17795;DHT22;9021;50.882;4.326;2023-07-31T00:05:20;18.20;99.90
17795;DHT22;9021;50.882;4.326;2023-07-31T00:07:46;18.20;99.90
17795;DHT22;9021;50.882;4.326;2023-07-31T00:10:11;18.20;99.90
17795;DHT22;9021;50.882;4.326;2023-07-31T00:12:38;18.30;99.90
17795;DHT22;9021;50.882;4.326;2023-07-31T00:15:03;18.20;99.90
17795;DHT22;9021;50.882;4.326;2023-07-31T00:17:29;18.30;99.90
17795;DHT22;9021;50.882;4.326;2023-07-31T00:19:55;18.30;99.90
17795;DHT22;9021;50.882;4.326;2023-07-31T00:22:20;18.40;99.90
17795;DHT22;9021;50.882;4.326;2023-07-31T00:24:46;18.40;99.90
17795;DHT22;9021;50.882;4.326;2023-07-31T00:27:11;18.40;99.90
17795;DHT22;9021;50.882;4.326;2023-07-31T00:29:37;20.30;99.90
17795;DHT22;9021;50.882;4.326;2023-07-31T00:32:02;18.40;99.90
17795;DHT22;9021;50.882;4.326;2023-07-31T00:34:28;18.40;99.90
17795;DHT22;9021;50.882;4.326;2023-07-31T00:36:53;18.30;99.90
17795;DHT22;9021;50.882;4.326;2023-07-31T00:39:19;18.30;99.90
17795;DHT22;9021;50.882;4.326;2023-07-31T00:41:44;18.50;99.90
17795;DHT22;9021;50.882;4.326;2023-07-31T00:44:10;18.40;99.90
17795;DHT22;9021;50.882;4.326;2023-07-31T00:46:36;18.50;99.90
17795;DHT22;9021;50.882;4.326;2023-07-31T00:49:01;18.50;99.90
17795;DHT22;9021;50.882;4.326;2023-07-31T00:51:27;18.40;99.90
17795;DHT22;9021;50.882;4.326;2023-07-31T00:53:53;18.30;99.90
17795;DHT22;9021;50.882;4.326;2023-07-31T00:56:19;18.30;99.90
17795;DHT22;9021;50.882;4.326;2023-07-31T00:58:45;18.40;99.90
17795;DHT22;9021;50.882;4.326;2023-07-31T01:01:10;18.40;99.90
17795;DHT22;9021;50.882;4.326;2023-07-31T01:03:36;18.40;99.90
17795;DHT22;9021;50.882;4.326;2023-07-31T01:12:13;18.40;99.90
17795;DHT22;9021;50.882;4.326;2023-07-31T01:14:05;18.40;99.90
17795;DHT22;9021;50.882;4.326;2023-07-31T01:16:31;18.40;99.90
17795;DHT22;9021;50.882;4.326;2023-07-31T01:18:56;18.30;99.90
17795;DHT22;9021;50.882;4.326;2023-07-31T01:22:07;18.30;99.90
17795;DHT22;9021;50.882;4.326;2023-07-31T01:26:43;18.30;99.90
17795;DHT22;9021;50.882;4.326;2023-07-31T01:31:37;18.30;99.90
17795;DHT22;9021;50.882;4.326;2023-07-31T01:34:04;18.30;99.90
17795;DHT22;9021;50.882;4.326;2023-07-31T01:36:31;18.40;99.90
17795;DHT22;9021;50.882;4.326;2023-07-31T01:39:00;18.30;99.90
17795;DHT22;9021;50.882;4.326;2023-07-31T01:41:26;18.30;99.90
17795;DHT22;9021;50.882;4.326;2023-07-31T01:43:51;18.30;99.90
17795;DHT22;9021;50.882;4.326;2023-07-31T01:46:17;18.40;99.90
17795;DHT22;9021;50.882;4.326;2023-07-31T01:48:42;18.40;99.90
17795;DHT22;9021;50.882;4.326;2023-07-31T01:51:08;18.40;99.90
17795;DHT22;9021;50.882;4.326;2023-07-31T01:53:33;18.30;99.90
17795;DHT22;9021;50.882;4.326;2023-07-31T01:55:59;18.50;99.90
17795;DHT22;9021;50.882;4.326;2023-07-31T01:58:24;18.50;99.90
17795;DHT22;9021;50.882;4.326;2023-07-31T02:00:50;18.50;99.90
17795;DHT22;9021;50.882;4.326;2023-07-31T02:03:15;18.60;99.90
17795;DHT22;9021;50.882;4.326;2023-07-31T02:05:44;18.60;99.90
17795;DHT22;9021;50.882;4.326;2023-07-31T02:08:10;18.60;99.90
17795;DHT22;9021;50.882;4.326;2023-07-31T02:10:35;18.60;99.90
17795;DHT22;9021;50.882;4.326;2023-07-31T02:13:01;18.60;99.90
17795;DHT22;9021;50.882;4.326;2023-07-31T02:15:31;18.60;99.90
17795;DHT22;9021;50.882;4.326;2023-07-31T02:17:57;18.50;99.90
17795;DHT22;9021;50.882;4.326;2023-07-31T02:20:22;18.60;99.90
17795;DHT22;9021;50.882;4.326;2023-07-31T02:22:48;18.50;99.90
17795;DHT22;9021;50.882;4.326;2023-07-31T02:25:13;18.50;99.90
17795;DHT22;9021;50.882;4.326;2023-07-31T02:27:39;18.50;99.90
17795;DHT22;9021;50.882;4.326;2023-07-31T02:30:05;18.50;99.90
17795;DHT22;9021;50.882;4.326;2023-07-31T02:32:30;18.60;99.90
17795;DHT22;9021;50.882;4.326;2023-07-31T02:34:56;18.50;99.90
17795;DHT22;9021;50.882;4.326;2023-07-31T02:37:21;21.80;99.90
17795;DHT22;9021;50.882;4.326;2023-07-31T02:39:47;18.50;99.90
17795;DHT22;9021;50.882;4.326;2023-07-31T02:42:13;18.50;99.90
17795;DHT22;9021;50.882;4.326;2023-07-31T02:44:38;18.50;99.90
17795;DHT22;9021;50.882;4.326;2023-07-31T02:47:04;18.50;99.90
17795;DHT22;9021;50.882;4.326;2023-07-31T02:49:29;18.50;99.90
17795;DHT22;9021;50.882;4.326;2023-07-31T02:51:55;18.50;99.90
17795;DHT22;9021;50.882;4.326;2023-07-31T02:54:20;18.60;99.90
17795;DHT22;9021;50.882;4.326;2023-07-31T02:56:47;18.50;99.90
17795;DHT22;9021;50.882;4.326;2023-07-31T02:59:12;18.50;99.90
17795;DHT22;9021;50.882;4.326;2023-07-31T03:01:38;18.50;99.90
17795;DHT22;9021;50.882;4.326;2023-07-31T03:04:04;18.50;99.90
17795;DHT22;9021;50.882;4.326;2023-07-31T03:06:29;18.40;99.90
17795;DHT22;9021;50.882;4.326;2023-07-31T03:08:55;18.50;99.90
17795;DHT22;9021;50.882;4.326;2023-07-31T03:11:20;18.40;99.90
17795;DHT22;9021;50.882;4.326;2023-07-31T03:13:46;18.40;99.90
17795;DHT22;9021;50.882;4.326;2023-07-31T03:16:11;18.40;99.90
17795;DHT22;9021;50.882;4.326;2023-07-31T03:18:37;18.40;99.90
17795;DHT22;9021;50.882;4.326;2023-07-31T03:21:02;18.30;99.90
17795;DHT22;9021;50.882;4.326;2023-07-31T03:23:28;18.40;99.90
17795;DHT22;9021;50.882;4.326;2023-07-31T03:26:00;18.20;99.90
17795;DHT22;9021;50.882;4.326;2023-07-31T03:28:25;18.20;99.90
17795;DHT22;9021;50.882;4.326;2023-07-31T03:30:51;18.20;99.90
17795;DHT22;9021;50.882;4.326;2023-07-31T03:33:17;18.20;99.90
17795;DHT22;9021;50.882;4.326;2023-07-31T03:35:42;18.30;99.90
17795;DHT22;9021;50.882;4.326;2023-07-31T03:38:08;18.30;99.90
17795;DHT22;9021;50.882;4.326;2023-07-31T03:40:33;18.20;99.90
17795;DHT22;9021;50.882;4.326;2023-07-31T03:42:59;18.20;99.90
17795;DHT22;9021;50.882;4.326;2023-07-31T03:45:24;18.10;99.90
17795;DHT22;9021;50.882;4.326;2023-07-31T03:47:50;18.10;99.90
17795;DHT22;9021;50.882;4.326;2023-07-31T03:50:16;18.10;99.90
17795;DHT22;9021;50.882;4.326;2023-07-31T03:52:41;18.10;99.90
17795;DHT22;9021;50.882;4.326;2023-07-31T03:55:07;18.00;99.90
17795;DHT22;9021;50.882;4.326;2023-07-31T03:57:32;18.00;99.90
17795;DHT22;9021;50.882;4.326;2023-07-31T03:59:58;18.00;99.90
17795;DHT22;9021;50.882;4.326;2023-07-31T04:02:23;17.90;99.90
17795;DHT22;9021;50.882;4.326;2023-07-31T04:04:49;17.90;99.90
17795;DHT22;9021;50.882;4.326;2023-07-31T04:07:14;17.90;99.90
17795;DHT22;9021;50.882;4.326;2023-07-31T04:09:40;17.90;99.90
17795;DHT22;9021;50.882;4.326;2023-07-31T04:12:05;17.90;99.90
17795;DHT22;9021;50.882;4.326;2023-07-31T04:14:31;17.90;99.90
17795;DHT22;9021;50.882;4.326;2023-07-31T04:16:56;17.80;99.90
17795;DHT22;9021;50.882;4.326;2023-07-31T04:19:22;17.80;99.90
17795;DHT22;9021;50.882;4.326;2023-07-31T04:21:47;17.80;99.90
17795;DHT22;9021;50.882;4.326;2023-07-31T04:24:13;17.80;99.90
17795;DHT22;9021;50.882;4.326;2023-07-31T04:26:38;17.80;99.90
17795;DHT22;9021;50.882;4.326;2023-07-31T04:29:04;17.90;99.90
17795;DHT22;9021;50.882;4.326;2023-07-31T04:31:30;17.80;99.90
17795;DHT22;9021;50.882;4.326;2023-07-31T04:33:55;17.70;99.90
17795;DHT22;9021;50.882;4.326;2023-07-31T04:36:24;17.80;99.90
17795;DHT22;9021;50.882;4.326;2023-07-31T04:38:49;17.80;99.90
17795;DHT22;9021;50.882;4.326;2023-07-31T04:41:15;17.80;99.90
17795;DHT22;9021;50.882;4.326;2023-07-31T04:43:40;17.80;99.90
17795;DHT22;9021;50.882;4.326;2023-07-31T04:46:06;17.90;99.90
17795;DHT22;9021;50.882;4.326;2023-07-31T04:48:31;17.80;99.90
17795;DHT22;9021;50.882;4.326;2023-07-31T04:50:57;17.80;99.90
17795;DHT22;9021;50.882;4.326;2023-07-31T04:53:22;17.90;99.90
17795;DHT22;9021;50.882;4.326;2023-07-31T04:55:48;17.90;99.90
17795;DHT22;9021;50.882;4.326;2023-07-31T04:58:13;17.90;99.90
17795;DHT22;9021;50.882;4.326;2023-07-31T05:00:39;17.90;99.90
17795;DHT22;9021;50.882;4.326;2023-07-31T05:03:04;17.90;99.90
17795;DHT22;9021;50.882;4.326;2023-07-31T05:05:30;17.90;99.90
17795;DHT22;9021;50.882;4.326;2023-07-31T05:07:55;17.90;99.90
17795;DHT22;9021;50.882;4.326;2023-07-31T05:10:21;17.90;99.90
17795;DHT22;9021;50.882;4.326;2023-07-31T05:12:46;17.90;99.90
17795;DHT22;9021;50.882;4.326;2023-07-31T05:15:12;17.80;99.90
17795;DHT22;9021;50.882;4.326;2023-07-31T05:17:37;17.80;99.90
17795;DHT22;9021;50.882;4.326;2023-07-31T05:20:03;17.70;99.90
17795;DHT22;9021;50.882;4.326;2023-07-31T05:22:29;17.70;99.90
17795;DHT22;9021;50.882;4.326;2023-07-31T05:24:54;17.70;99.90
17795;DHT22;9021;50.882;4.326;2023-07-31T05:27:20;17.70;99.90
17795;DHT22;9021;50.882;4.326;2023-07-31T05:29:45;17.60;99.90
17795;DHT22;9021;50.882;4.326;2023-07-31T05:32:11;17.60;99.90
17795;DHT22;9021;50.882;4.326;2023-07-31T05:34:36;17.50;99.90
17795;DHT22;9021;50.882;4.326;2023-07-31T05:37:02;17.50;99.90
17795;DHT22;9021;50.882;4.326;2023-07-31T05:39:27;17.50;99.90
17795;DHT22;9021;50.882;4.326;2023-07-31T05:41:53;17.50;99.90
17795;DHT22;9021;50.882;4.326;2023-07-31T05:44:18;17.60;99.90
17795;DHT22;9021;50.882;4.326;2023-07-31T05:46:44;17.60;99.90
17795;DHT22;9021;50.882;4.326;2023-07-31T05:49:09;17.60;99.90
17795;DHT22;9021;50.882;4.326;2023-07-31T05:51:35;17.60;99.90
17795;DHT22;9021;50.882;4.326;2023-07-31T05:54:00;17.50;99.90
17795;DHT22;9021;50.882;4.326;2023-07-31T05:56:26;17.40;99.90
17795;DHT22;9021;50.882;4.326;2023-07-31T05:58:52;17.40;99.90
17795;DHT22;9021;50.882;4.326;2023-07-31T06:01:18;17.40;99.90
17795;DHT22;9021;50.882;4.326;2023-07-31T06:03:43;17.40;99.90
17795;DHT22;9021;50.882;4.326;2023-07-31T06:06:09;17.50;99.90
17795;DHT22;9021;50.882;4.326;2023-07-31T06:08:34;17.70;99.90
17795;DHT22;9021;50.882;4.326;2023-07-31T06:11:00;20.40;99.90
17795;DHT22;9021;50.882;4.326;2023-07-31T06:13:25;17.70;99.90
17795;DHT22;9021;50.882;4.326;2023-07-31T06:15:51;17.60;99.90
17795;DHT22;9021;50.882;4.326;2023-07-31T06:18:17;17.70;99.90
17795;DHT22;9021;50.882;4.326;2023-07-31T06:20:42;17.60;99.90
17795;DHT22;9021;50.882;4.326;2023-07-31T06:23:08;17.70;99.90
17795;DHT22;9021;50.882;4.326;2023-07-31T06:25:33;17.60;99.90
17795;DHT22;9021;50.882;4.326;2023-07-31T06:27:59;17.70;99.90
17795;DHT22;9021;50.882;4.326;2023-07-31T06:30:24;17.70;99.90
17795;DHT22;9021;50.882;4.326;2023-07-31T06:32:50;17.80;99.90
17795;DHT22;9021;50.882;4.326;2023-07-31T06:35:15;17.70;99.90
17795;DHT22;9021;50.882;4.326;2023-07-31T06:37:41;17.80;99.90
17795;DHT22;9021;50.882;4.326;2023-07-31T06:40:09;17.90;99.90
17795;DHT22;9021;50.882;4.326;2023-07-31T06:42:35;17.90;99.90
17795;DHT22;9021;50.882;4.326;2023-07-31T06:45:01;17.90;99.90
17795;DHT22;9021;50.882;4.326;2023-07-31T06:47:26;18.00;99.90
17795;DHT22;9021;50.882;4.326;2023-07-31T06:49:52;18.00;99.90
17795;DHT22;9021;50.882;4.326;2023-07-31T06:52:17;18.00;99.90
17795;DHT22;9021;50.882;4.326;2023-07-31T06:54:43;18.10;99.90
17795;DHT22;9021;50.882;4.326;2023-07-31T06:57:08;18.10;99.90
17795;DHT22;9021;50.882;4.326;2023-07-31T06:59:34;18.20;99.90
17795;DHT22;9021;50.882;4.326;2023-07-31T07:01:59;18.30;99.90
17795;DHT22;9021;50.882;4.326;2023-07-31T07:04:25;18.40;99.90
17795;DHT22;9021;50.882;4.326;2023-07-31T07:06:51;18.50;99.90
17795;DHT22;9021;50.882;4.326;2023-07-31T07:09:17;18.50;99.90
17795;DHT22;9021;50.882;4.326;2023-07-31T07:11:43;18.60;99.90
17795;DHT22;9021;50.882;4.326;2023-07-31T07:14:08;18.60;99.90
17795;DHT22;9021;50.882;4.326;2023-07-31T07:16:34;18.60;99.90
17795;DHT22;9021;50.882;4.326;2023-07-31T07:18:59;18.80;99.90
17795;DHT22;9021;50.882;4.326;2023-07-31T07:21:25;18.80;99.90
17795;DHT22;9021;50.882;4.326;2023-07-31T07:23:50;18.70;99.90
17795;DHT22;9021;50.882;4.326;2023-07-31T07:26:16;18.70;99.90
17795;DHT22;9021;50.882;4.326;2023-07-31T07:28:41;18.60;99.90
17795;DHT22;9021;50.882;4.326;2023-07-31T07:31:07;18.60;99.90
17795;DHT22;9021;50.882;4.326;2023-07-31T07:33:32;18.60;99.90
17795;DHT22;9021;50.882;4.326;2023-07-31T07:36:04;18.50;99.90
17795;DHT22;9021;50.882;4.326;2023-07-31T07:38:31;18.50;99.90
17795;DHT22;9021;50.882;4.326;2023-07-31T07:40:56;18.60;99.90
17795;DHT22;9021;50.882;4.326;2023-07-31T07:43:22;18.70;99.90
17795;DHT22;9021;50.882;4.326;2023-07-31T07:45:47;18.80;99.90
17795;DHT22;9021;50.882;4.326;2023-07-31T07:48:13;18.90;99.90
17795;DHT22;9021;50.882;4.326;2023-07-31T07:50:38;18.90;99.90
17795;DHT22;9021;50.882;4.326;2023-07-31T07:53:04;18.90;99.90
17795;DHT22;9021;50.882;4.326;2023-07-31T07:55:29;18.80;99.90
17795;DHT22;9021;50.882;4.326;2023-07-31T07:57:54;18.70;99.90
17795;DHT22;9021;50.882;4.326;2023-07-31T08:00:20;18.70;99.90
17795;DHT22;9021;50.882;4.326;2023-07-31T08:02:46;18.70;99.90
17795;DHT22;9021;50.882;4.326;2023-07-31T08:05:11;18.80;99.90
17795;DHT22;9021;50.882;4.326;2023-07-31T08:07:37;18.80;99.90
17795;DHT22;9021;50.882;4.326;2023-07-31T08:10:02;19.00;99.90
17795;DHT22;9021;50.882;4.326;2023-07-31T08:12:28;19.10;99.90
17795;DHT22;9021;50.882;4.326;2023-07-31T08:14:53;19.10;99.90
17795;DHT22;9021;50.882;4.326;2023-07-31T08:17:19;19.10;99.90
17795;DHT22;9021;50.882;4.326;2023-07-31T08:19:44;19.00;99.90
17795;DHT22;9021;50.882;4.326;2023-07-31T08:22:11;19.00;99.90
17795;DHT22;9021;50.882;4.326;2023-07-31T08:24:36;19.10;99.90
17795;DHT22;9021;50.882;4.326;2023-07-31T08:27:02;19.10;99.90
17795;DHT22;9021;50.882;4.326;2023-07-31T08:29:27;19.00;99.90
17795;DHT22;9021;50.882;4.326;2023-07-31T08:31:53;18.80;99.90
17795;DHT22;9021;50.882;4.326;2023-07-31T08:34:18;18.80;99.90
17795;DHT22;9021;50.882;4.326;2023-07-31T08:36:44;18.80;99.90
17795;DHT22;9021;50.882;4.326;2023-07-31T08:39:10;19.00;99.90
17795;DHT22;9021;50.882;4.326;2023-07-31T08:41:38;19.10;99.90
17795;DHT22;9021;50.882;4.326;2023-07-31T08:44:04;19.00;99.90
17795;DHT22;9021;50.882;4.326;2023-07-31T08:46:31;18.80;99.90
17795;DHT22;9021;50.882;4.326;2023-07-31T08:48:56;18.80;99.90
17795;DHT22;9021;50.882;4.326;2023-07-31T08:51:24;18.80;99.90
17795;DHT22;9021;50.882;4.326;2023-07-31T08:53:53;18.80;99.90
17795;DHT22;9021;50.882;4.326;2023-07-31T08:56:18;18.70;99.90
17795;DHT22;9021;50.882;4.326;2023-07-31T08:58:44;18.70;99.90
17795;DHT22;9021;50.882;4.326;2023-07-31T09:01:10;18.70;99.90
17795;DHT22;9021;50.882;4.326;2023-07-31T09:03:36;18.80;99.90
17795;DHT22;9021;50.882;4.326;2023-07-31T09:06:02;18.80;99.90
17795;DHT22;9021;50.882;4.326;2023-07-31T09:08:30;18.80;99.90
17795;DHT22;9021;50.882;4.326;2023-07-31T09:10:58;18.80;99.90
17795;DHT22;9021;50.882;4.326;2023-07-31T09:13:24;18.80;99.90
17795;DHT22;9021;50.882;4.326;2023-07-31T09:15:49;18.90;99.90
17795;DHT22;9021;50.882;4.326;2023-07-31T09:18:15;19.00;99.90
17795;DHT22;9021;50.882;4.326;2023-07-31T09:20:44;19.20;99.90
17795;DHT22;9021;50.882;4.326;2023-07-31T09:23:13;19.30;99.90
17795;DHT22;9021;50.882;4.326;2023-07-31T09:25:40;19.40;99.90
17795;DHT22;9021;50.882;4.326;2023-07-31T09:28:06;19.60;99.90
17795;DHT22;9021;50.882;4.326;2023-07-31T09:30:44;20.00;99.90
17795;DHT22;9021;50.882;4.326;2023-07-31T09:33:09;20.20;99.90
17795;DHT22;9021;50.882;4.326;2023-07-31T09:35:35;20.30;99.90
17795;DHT22;9021;50.882;4.326;2023-07-31T09:38:03;20.20;99.90
17795;DHT22;9021;50.882;4.326;2023-07-31T09:40:36;20.00;99.90
17795;DHT22;9021;50.882;4.326;2023-07-31T09:43:05;19.90;99.90
17795;DHT22;9021;50.882;4.326;2023-07-31T09:45:33;19.80;99.90
17795;DHT22;9021;50.882;4.326;2023-07-31T09:47:58;19.70;99.90
17795;DHT22;9021;50.882;4.326;2023-07-31T09:50:24;19.60;99.90
17795;DHT22;9021;50.882;4.326;2023-07-31T09:52:50;19.50;99.90
17795;DHT22;9021;50.882;4.326;2023-07-31T09:55:16;19.60;99.90
17795;DHT22;9021;50.882;4.326;2023-07-31T09:57:44;19.50;99.90
17795;DHT22;9021;50.882;4.326;2023-07-31T10:00:10;19.60;99.90
17795;DHT22;9021;50.882;4.326;2023-07-31T10:02:36;19.50;99.90
17795;DHT22;9021;50.882;4.326;2023-07-31T10:05:02;19.50;99.90
17795;DHT22;9021;50.882;4.326;2023-07-31T10:07:28;19.40;99.90
17795;DHT22;9021;50.882;4.326;2023-07-31T10:09:55;19.30;99.90
17795;DHT22;9021;50.882;4.326;2023-07-31T10:12:22;19.30;99.90
17795;DHT22;9021;50.882;4.326;2023-07-31T10:14:50;19.20;99.90
17795;DHT22;9021;50.882;4.326;2023-07-31T10:17:17;19.20;99.90
17795;DHT22;9021;50.882;4.326;2023-07-31T10:19:43;19.20;99.90
17795;DHT22;9021;50.882;4.326;2023-07-31T10:22:09;19.30;99.90
17795;DHT22;9021;50.882;4.326;2023-07-31T10:24:35;19.40;99.90
17795;DHT22;9021;50.882;4.326;2023-07-31T10:27:02;19.40;99.90
17795;DHT22;9021;50.882;4.326;2023-07-31T10:29:28;19.50;99.90
17795;DHT22;9021;50.882;4.326;2023-07-31T10:31:56;19.60;99.90
17795;DHT22;9021;50.882;4.326;2023-07-31T10:34:21;19.60;99.90
17795;DHT22;9021;50.882;4.326;2023-07-31T10:36:47;19.60;99.90
17795;DHT22;9021;50.882;4.326;2023-07-31T10:41:57;19.50;99.90
17795;DHT22;9021;50.882;4.326;2023-07-31T10:44:22;19.50;99.90
17795;DHT22;9021;50.882;4.326;2023-07-31T10:46:48;19.60;99.90
17795;DHT22;9021;50.882;4.326;2023-07-31T10:49:13;19.80;99.90
17795;DHT22;9021;50.882;4.326;2023-07-31T10:51:46;19.90;99.90
17795;DHT22;9021;50.882;4.326;2023-07-31T10:54:15;20.00;99.90
17795;DHT22;9021;50.882;4.326;2023-07-31T10:56:44;20.00;99.90
17795;DHT22;9021;50.882;4.326;2023-07-31T10:59:09;20.20;99.90
17795;DHT22;9021;50.882;4.326;2023-07-31T11:01:59;20.30;99.90
17795;DHT22;9021;50.882;4.326;2023-07-31T11:04:26;20.20;99.90
17795;DHT22;9021;50.882;4.326;2023-07-31T11:06:56;20.20;99.90
17795;DHT22;9021;50.882;4.326;2023-07-31T11:09:22;20.20;99.90
17795;DHT22;9021;50.882;4.326;2023-07-31T11:11:47;20.30;99.90
17795;DHT22;9021;50.882;4.326;2023-07-31T11:14:15;20.50;99.90
17795;DHT22;9021;50.882;4.326;2023-07-31T11:16:40;20.60;99.90
17795;DHT22;9021;50.882;4.326;2023-07-31T11:19:08;20.80;99.90
17795;DHT22;9021;50.882;4.326;2023-07-31T11:21:33;20.90;99.90
17795;DHT22;9021;50.882;4.326;2023-07-31T11:23:59;20.80;99.90
17795;DHT22;9021;50.882;4.326;2023-07-31T11:26:25;20.80;99.90
17795;DHT22;9021;50.882;4.326;2023-07-31T11:28:50;20.90;99.90
17795;DHT22;9021;50.882;4.326;2023-07-31T11:31:16;20.90;99.90
17795;DHT22;9021;50.882;4.326;2023-07-31T11:33:42;20.80;99.90
17795;DHT22;9021;50.882;4.326;2023-07-31T11:36:26;20.70;99.90
17795;DHT22;9021;50.882;4.326;2023-07-31T11:38:52;20.60;99.90
17795;DHT22;9021;50.882;4.326;2023-07-31T11:41:17;20.50;99.90
17795;DHT22;9021;50.882;4.326;2023-07-31T11:43:42;20.60;99.90
17795;DHT22;9021;50.882;4.326;2023-07-31T11:46:08;20.60;99.90
17795;DHT22;9021;50.882;4.326;2023-07-31T11:48:37;20.70;99.90
17795;DHT22;9021;50.882;4.326;2023-07-31T11:51:03;20.60;99.90
17795;DHT22;9021;50.882;4.326;2023-07-31T11:53:51;20.50;99.90
17795;DHT22;9021;50.882;4.326;2023-07-31T11:56:19;20.50;99.90
17795;DHT22;9021;50.882;4.326;2023-07-31T11:58:45;20.30;99.90
17795;DHT22;9021;50.882;4.326;2023-07-31T12:01:11;20.40;99.90
17795;DHT22;9021;50.882;4.326;2023-07-31T12:03:38;20.40;99.90
17795;DHT22;9021;50.882;4.326;2023-07-31T12:06:04;20.50;99.90
17795;DHT22;9021;50.882;4.326;2023-07-31T12:08:29;20.60;99.90
17795;DHT22;9021;50.882;4.326;2023-07-31T12:11:01;22.00;99.90
17795;DHT22;9021;50.882;4.326;2023-07-31T12:13:27;20.60;99.90
17795;DHT22;9021;50.882;4.326;2023-07-31T12:15:56;20.70;99.90
17795;DHT22;9021;50.882;4.326;2023-07-31T12:18:23;20.70;99.90
17795;DHT22;9021;50.882;4.326;2023-07-31T12:20:49;20.70;99.90
17795;DHT22;9021;50.882;4.326;2023-07-31T12:23:22;20.80;99.90
17795;DHT22;9021;50.882;4.326;2023-07-31T12:26:01;20.70;99.90
17795;DHT22;9021;50.882;4.326;2023-07-31T12:28:26;20.70;99.90
17795;DHT22;9021;50.882;4.326;2023-07-31T12:30:52;20.80;99.90
17795;DHT22;9021;50.882;4.326;2023-07-31T12:33:21;20.80;99.90
17795;DHT22;9021;50.882;4.326;2023-07-31T12:35:47;20.90;99.90
17795;DHT22;9021;50.882;4.326;2023-07-31T12:38:13;21.00;99.90
17795;DHT22;9021;50.882;4.326;2023-07-31T12:40:39;21.20;99.90
17795;DHT22;9021;50.882;4.326;2023-07-31T12:43:05;21.30;99.90
17795;DHT22;9021;50.882;4.326;2023-07-31T12:45:31;19.40;99.90
17795;DHT22;9021;50.882;4.326;2023-07-31T12:47:57;21.40;99.90
17795;DHT22;9021;50.882;4.326;2023-07-31T12:50:23;21.40;99.90
17795;DHT22;9021;50.882;4.326;2023-07-31T12:52:49;21.40;99.90
17795;DHT22;9021;50.882;4.326;2023-07-31T12:55:14;21.50;99.90
17795;DHT22;9021;50.882;4.326;2023-07-31T12:57:40;21.40;99.90
17795;DHT22;9021;50.882;4.326;2023-07-31T13:00:06;21.40;99.90
17795;DHT22;9021;50.882;4.326;2023-07-31T13:02:32;21.20;99.90
17795;DHT22;9021;50.882;4.326;2023-07-31T13:04:57;21.10;99.90
17795;DHT22;9021;50.882;4.326;2023-07-31T13:07:23;21.20;99.90
17795;DHT22;9021;50.882;4.326;2023-07-31T13:09:48;21.30;99.90
17795;DHT22;9021;50.882;4.326;2023-07-31T13:12:14;21.10;99.90
17795;DHT22;9021;50.882;4.326;2023-07-31T13:14:39;20.80;99.90
17795;DHT22;9021;50.882;4.326;2023-07-31T13:17:05;20.60;99.90
17795;DHT22;9021;50.882;4.326;2023-07-31T13:19:30;20.30;99.90
17795;DHT22;9021;50.882;4.326;2023-07-31T13:21:56;20.20;99.90
17795;DHT22;9021;50.882;4.326;2023-07-31T13:24:21;20.00;99.90
17795;DHT22;9021;50.882;4.326;2023-07-31T13:26:47;19.80;99.90
17795;DHT22;9021;50.882;4.326;2023-07-31T13:29:12;19.60;99.90
17795;DHT22;9021;50.882;4.326;2023-07-31T13:31:38;19.60;99.90
17795;DHT22;9021;50.882;4.326;2023-07-31T13:34:03;19.50;99.90
17795;DHT22;9021;50.882;4.326;2023-07-31T13:36:29;19.40;99.90
17795;DHT22;9021;50.882;4.326;2023-07-31T13:38:54;19.20;99.90
17795;DHT22;9021;50.882;4.326;2023-07-31T13:41:20;19.20;99.90
17795;DHT22;9021;50.882;4.326;2023-07-31T13:43:45;19.20;99.90
17795;DHT22;9021;50.882;4.326;2023-07-31T13:46:11;19.20;99.90
17795;DHT22;9021;50.882;4.326;2023-07-31T13:48:36;19.20;99.90
17795;DHT22;9021;50.882;4.326;2023-07-31T13:51:02;19.20;99.90
17795;DHT22;9021;50.882;4.326;2023-07-31T13:53:27;19.20;99.90
17795;DHT22;9021;50.882;4.326;2023-07-31T13:55:53;19.10;99.90
17795;DHT22;9021;50.882;4.326;2023-07-31T13:58:19;19.10;99.90
17795;DHT22;9021;50.882;4.326;2023-07-31T14:00:45;19.10;99.90
17795;DHT22;9021;50.882;4.326;2023-07-31T14:03:11;19.10;99.90
17795;DHT22;9021;50.882;4.326;2023-07-31T14:05:37;19.10;99.90
17795;DHT22;9021;50.882;4.326;2023-07-31T14:08:02;19.10;99.90
17795;DHT22;9021;50.882;4.326;2023-07-31T14:10:28;19.00;99.90
17795;DHT22;9021;50.882;4.326;2023-07-31T14:12:53;18.90;99.90
17795;DHT22;9021;50.882;4.326;2023-07-31T14:15:19;18.90;99.90
17795;DHT22;9021;50.882;4.326;2023-07-31T14:17:44;18.90;99.90
17795;DHT22;9021;50.882;4.326;2023-07-31T14:20:10;18.80;99.90
17795;DHT22;9021;50.882;4.326;2023-07-31T14:22:35;18.80;99.90
17795;DHT22;9021;50.882;4.326;2023-07-31T14:25:01;18.90;99.90
17795;DHT22;9021;50.882;4.326;2023-07-31T14:27:27;18.90;99.90
17795;DHT22;9021;50.882;4.326;2023-07-31T14:29:52;19.00;99.90
17795;DHT22;9021;50.882;4.326;2023-07-31T14:32:18;19.00;99.90
17795;DHT22;9021;50.882;4.326;2023-07-31T14:34:43;19.10;99.90
17795;DHT22;9021;50.882;4.326;2023-07-31T14:37:09;19.00;99.90
17795;DHT22;9021;50.882;4.326;2023-07-31T14:39:34;19.00;99.90
17795;DHT22;9021;50.882;4.326;2023-07-31T14:42:00;19.00;99.90
17795;DHT22;9021;50.882;4.326;2023-07-31T14:44:25;19.00;99.90
17795;DHT22;9021;50.882;4.326;2023-07-31T14:46:51;19.10;99.90
17795;DHT22;9021;50.882;4.326;2023-07-31T14:49:16;19.00;99.90
17795;DHT22;9021;50.882;4.326;2023-07-31T14:51:42;19.00;99.90
17795;DHT22;9021;50.882;4.326;2023-07-31T14:54:07;19.10;99.90
17795;DHT22;9021;50.882;4.326;2023-07-31T14:56:34;21.50;99.90
17795;DHT22;9021;50.882;4.326;2023-07-31T14:58:59;19.10;99.90
17795;DHT22;9021;50.882;4.326;2023-07-31T15:01:25;19.00;99.90
17795;DHT22;9021;50.882;4.326;2023-07-31T15:03:50;19.00;99.90
17795;DHT22;9021;50.882;4.326;2023-07-31T15:06:16;19.00;99.90
17795;DHT22;9021;50.882;4.326;2023-07-31T15:08:41;18.90;99.90
17795;DHT22;9021;50.882;4.326;2023-07-31T15:11:07;18.80;99.90
17795;DHT22;9021;50.882;4.326;2023-07-31T15:13:33;18.90;99.90
17795;DHT22;9021;50.882;4.326;2023-07-31T15:15:58;18.90;99.90
17795;DHT22;9021;50.882;4.326;2023-07-31T15:18:24;18.90;99.90
17795;DHT22;9021;50.882;4.326;2023-07-31T15:20:49;18.90;99.90
17795;DHT22;9021;50.882;4.326;2023-07-31T15:23:15;18.90;99.90
17795;DHT22;9021;50.882;4.326;2023-07-31T15:25:40;18.90;99.90
17795;DHT22;9021;50.882;4.326;2023-07-31T15:28:06;18.90;99.90
17795;DHT22;9021;50.882;4.326;2023-07-31T15:30:32;18.90;99.90
17795;DHT22;9021;50.882;4.326;2023-07-31T15:32:58;18.80;99.90
17795;DHT22;9021;50.882;4.326;2023-07-31T15:35:24;18.80;99.90
17795;DHT22;9021;50.882;4.326;2023-07-31T15:37:49;18.80;99.90
17795;DHT22;9021;50.882;4.326;2023-07-31T15:40:15;18.90;99.90
17795;DHT22;9021;50.882;4.326;2023-07-31T15:42:40;19.00;99.90
17795;DHT22;9021;50.882;4.326;2023-07-31T15:45:07;19.00;99.90
17795;DHT22;9021;50.882;4.326;2023-07-31T15:47:33;19.00;99.90
17795;DHT22;9021;50.882;4.326;2023-07-31T15:49:58;18.90;99.90